sensor_id;sensor_type;location;lat;lon;timestamp;P1;durP1;ratioP1;P2;durP2;ratioP2
22064;SDS011;11197;53.110;8.468;2022-07-29T00:01:56;2.35;;;1.13;;
22064;SDS011;11197;53.110;8.468;2022-07-29T00:04:22;3.75;;;1.85;;
22064;SDS011;11197;53.110;8.468;2022-07-29T00:06:48;3.45;;;1.55;;
22064;SDS011;11197;53.110;8.468;2022-07-29T00:09:14;4.60;;;1.50;;
22064;SDS011;11197;53.110;8.468;2022-07-29T00:11:40;3.10;;;1.50;;
22064;SDS011;11197;53.110;8.468;2022-07-29T00:14:06;2.53;;;1.27;;
22064;SDS011;11197;53.110;8.468;2022-07-29T00:16:32;3.95;;;1.42;;
22064;SDS011;11197;53.110;8.468;2022-07-29T00:18:58;4.05;;;1.60;;
22064;SDS011;11197;53.110;8.468;2022-07-29T00:21:24;4.25;;;1.42;;
22064;SDS011;11197;53.110;8.468;2022-07-29T00:23:50;4.40;;;1.50;;
22064;SDS011;11197;53.110;8.468;2022-07-29T00:26:16;2.45;;;1.08;;
22064;SDS011;11197;53.110;8.468;2022-07-29T00:28:42;3.25;;;1.35;;
22064;SDS011;11197;53.110;8.468;2022-07-29T00:31:08;5.43;;;1.40;;
22064;SDS011;11197;53.110;8.468;2022-07-29T00:33:34;5.90;;;1.40;;
22064;SDS011;11197;53.110;8.468;2022-07-29T00:36:00;2.17;;;1.00;;
22064;SDS011;11197;53.110;8.468;2022-07-29T00:38:26;3.15;;;1.00;;
22064;SDS011;11197;53.110;8.468;2022-07-29T00:40:52;2.63;;;1.17;;
22064;SDS011;11197;53.110;8.468;2022-07-29T00:43:18;3.80;;;1.30;;
22064;SDS011;11197;53.110;8.468;2022-07-29T00:45:44;2.90;;;1.27;;
22064;SDS011;11197;53.110;8.468;2022-07-29T00:48:10;4.47;;;1.40;;
22064;SDS011;11197;53.110;8.468;2022-07-29T00:50:36;4.80;;;1.33;;
22064;SDS011;11197;53.110;8.468;2022-07-29T00:53:05;3.13;;;1.10;;
22064;SDS011;11197;53.110;8.468;2022-07-29T00:55:32;5.35;;;1.30;;
22064;SDS011;11197;53.110;8.468;2022-07-29T00:57:58;4.18;;;1.23;;
22064;SDS011;11197;53.110;8.468;2022-07-29T01:00:26;5.32;;;1.33;;
22064;SDS011;11197;53.110;8.468;2022-07-29T01:02:53;4.03;;;1.30;;
22064;SDS011;11197;53.110;8.468;2022-07-29T01:05:20;3.03;;;1.13;;
22064;SDS011;11197;53.110;8.468;2022-07-29T01:07:51;3.83;;;1.13;;
22064;SDS011;11197;53.110;8.468;2022-07-29T01:10:19;4.75;;;1.30;;
22064;SDS011;11197;53.110;8.468;2022-07-29T01:12:47;4.75;;;1.27;;
22064;SDS011;11197;53.110;8.468;2022-07-29T01:15:15;4.60;;;1.33;;
22064;SDS011;11197;53.110;8.468;2022-07-29T01:20:27;5.28;;;1.30;;
22064;SDS011;11197;53.110;8.468;2022-07-29T01:28:39;4.40;;;1.40;;
22064;SDS011;11197;53.110;8.468;2022-07-29T01:31:05;2.10;;;1.10;;
22064;SDS011;11197;53.110;8.468;2022-07-29T01:33:36;6.22;;;1.42;;
22064;SDS011;11197;53.110;8.468;2022-07-29T01:36:22;5.15;;;1.60;;
22064;SDS011;11197;53.110;8.468;2022-07-29T01:39:14;4.38;;;1.25;;
22064;SDS011;11197;53.110;8.468;2022-07-29T01:44:37;4.20;;;1.40;;
22064;SDS011;11197;53.110;8.468;2022-07-29T01:47:12;4.15;;;1.40;;
22064;SDS011;11197;53.110;8.468;2022-07-29T01:49:44;2.80;;;1.25;;
22064;SDS011;11197;53.110;8.468;2022-07-29T01:52:23;4.60;;;1.33;;
22064;SDS011;11197;53.110;8.468;2022-07-29T01:54:57;5.63;;;1.50;;
22064;SDS011;11197;53.110;8.468;2022-07-29T01:57:28;4.05;;;1.25;;
22064;SDS011;11197;53.110;8.468;2022-07-29T01:59:55;4.72;;;1.30;;
22064;SDS011;11197;53.110;8.468;2022-07-29T02:02:23;5.18;;;1.30;;
22064;SDS011;11197;53.110;8.468;2022-07-29T02:04:51;5.18;;;1.50;;
22064;SDS011;11197;53.110;8.468;2022-07-29T02:07:20;7.45;;;1.65;;
22064;SDS011;11197;53.110;8.468;2022-07-29T02:09:49;4.50;;;1.40;;
22064;SDS011;11197;53.110;8.468;2022-07-29T02:12:17;4.90;;;1.38;;
22064;SDS011;11197;53.110;8.468;2022-07-29T02:14:45;4.07;;;1.40;;
22064;SDS011;11197;53.110;8.468;2022-07-29T02:17:19;5.78;;;1.30;;
22064;SDS011;11197;53.110;8.468;2022-07-29T02:19:54;6.30;;;1.35;;
22064;SDS011;11197;53.110;8.468;2022-07-29T02:22:23;4.43;;;1.20;;
22064;SDS011;11197;53.110;8.468;2022-07-29T02:24:51;3.05;;;1.50;;
22064;SDS011;11197;53.110;8.468;2022-07-29T02:27:19;5.40;;;1.40;;
22064;SDS011;11197;53.110;8.468;2022-07-29T02:29:46;5.20;;;1.40;;
22064;SDS011;11197;53.110;8.468;2022-07-29T02:32:14;5.80;;;1.58;;
22064;SDS011;11197;53.110;8.468;2022-07-29T02:34:42;3.95;;;1.50;;
22064;SDS011;11197;53.110;8.468;2022-07-29T02:37:09;3.85;;;1.40;;
22064;SDS011;11197;53.110;8.468;2022-07-29T02:39:36;4.45;;;1.40;;
22064;SDS011;11197;53.110;8.468;2022-07-29T02:42:05;3.75;;;1.40;;
22064;SDS011;11197;53.110;8.468;2022-07-29T02:44:33;4.10;;;1.48;;
22064;SDS011;11197;53.110;8.468;2022-07-29T02:47:04;5.05;;;1.40;;
22064;SDS011;11197;53.110;8.468;2022-07-29T02:49:35;3.60;;;1.42;;
22064;SDS011;11197;53.110;8.468;2022-07-29T02:52:06;4.13;;;1.42;;
22064;SDS011;11197;53.110;8.468;2022-07-29T02:54:39;3.72;;;1.50;;
22064;SDS011;11197;53.110;8.468;2022-07-29T02:57:54;8.88;;;1.60;;
22064;SDS011;11197;53.110;8.468;2022-07-29T03:00:19;5.93;;;1.67;;
22064;SDS011;11197;53.110;8.468;2022-07-29T03:02:50;4.55;;;1.70;;
22064;SDS011;11197;53.110;8.468;2022-07-29T03:05:19;3.90;;;1.50;;
22064;SDS011;11197;53.110;8.468;2022-07-29T03:07:47;3.88;;;1.40;;
22064;SDS011;11197;53.110;8.468;2022-07-29T03:10:18;3.10;;;1.27;;
22064;SDS011;11197;53.110;8.468;2022-07-29T03:12:43;3.88;;;1.48;;
22064;SDS011;11197;53.110;8.468;2022-07-29T03:15:10;3.97;;;1.55;;
22064;SDS011;11197;53.110;8.468;2022-07-29T03:17:37;3.25;;;1.40;;
22064;SDS011;11197;53.110;8.468;2022-07-29T03:20:04;6.53;;;1.60;;
22064;SDS011;11197;53.110;8.468;2022-07-29T03:22:32;6.10;;;1.60;;
22064;SDS011;11197;53.110;8.468;2022-07-29T03:25:06;5.90;;;1.40;;
22064;SDS011;11197;53.110;8.468;2022-07-29T03:27:33;4.45;;;1.50;;
22064;SDS011;11197;53.110;8.468;2022-07-29T03:29:59;4.57;;;1.45;;
22064;SDS011;11197;53.110;8.468;2022-07-29T03:32:25;4.78;;;1.50;;
22064;SDS011;11197;53.110;8.468;2022-07-29T03:34:51;4.15;;;1.55;;
22064;SDS011;11197;53.110;8.468;2022-07-29T03:37:17;4.38;;;1.58;;
22064;SDS011;11197;53.110;8.468;2022-07-29T03:39:43;6.60;;;1.60;;
22064;SDS011;11197;53.110;8.468;2022-07-29T03:42:12;4.20;;;1.60;;
22064;SDS011;11197;53.110;8.468;2022-07-29T03:44:41;3.83;;;1.80;;
22064;SDS011;11197;53.110;8.468;2022-07-29T03:47:10;3.85;;;1.60;;
22064;SDS011;11197;53.110;8.468;2022-07-29T03:49:40;5.63;;;1.98;;
22064;SDS011;11197;53.110;8.468;2022-07-29T03:52:07;2.95;;;1.40;;
22064;SDS011;11197;53.110;8.468;2022-07-29T03:54:33;5.60;;;1.70;;
22064;SDS011;11197;53.110;8.468;2022-07-29T03:57:00;4.57;;;1.55;;
22064;SDS011;11197;53.110;8.468;2022-07-29T03:59:27;3.83;;;1.50;;
22064;SDS011;11197;53.110;8.468;2022-07-29T04:01:55;2.70;;;1.33;;
22064;SDS011;11197;53.110;8.468;2022-07-29T04:04:23;5.25;;;1.70;;
22064;SDS011;11197;53.110;8.468;2022-07-29T04:06:49;4.20;;;1.50;;
22064;SDS011;11197;53.110;8.468;2022-07-29T04:09:15;4.60;;;1.40;;
22064;SDS011;11197;53.110;8.468;2022-07-29T04:11:41;2.50;;;1.30;;
22064;SDS011;11197;53.110;8.468;2022-07-29T04:14:07;3.58;;;1.45;;
22064;SDS011;11197;53.110;8.468;2022-07-29T04:16:33;4.03;;;1.70;;
22064;SDS011;11197;53.110;8.468;2022-07-29T04:18:59;5.38;;;1.50;;
22064;SDS011;11197;53.110;8.468;2022-07-29T04:21:25;3.42;;;1.50;;
22064;SDS011;11197;53.110;8.468;2022-07-29T04:23:51;5.40;;;1.50;;
22064;SDS011;11197;53.110;8.468;2022-07-29T04:26:17;4.22;;;1.75;;
22064;SDS011;11197;53.110;8.468;2022-07-29T04:28:44;4.55;;;1.30;;
22064;SDS011;11197;53.110;8.468;2022-07-29T04:31:11;4.55;;;1.60;;
22064;SDS011;11197;53.110;8.468;2022-07-29T04:33:38;5.45;;;1.80;;
22064;SDS011;11197;53.110;8.468;2022-07-29T04:36:05;4.60;;;1.73;;
22064;SDS011;11197;53.110;8.468;2022-07-29T04:38:30;3.45;;;1.50;;
22064;SDS011;11197;53.110;8.468;2022-07-29T04:40:56;6.38;;;1.80;;
22064;SDS011;11197;53.110;8.468;2022-07-29T04:43:22;5.72;;;1.90;;
22064;SDS011;11197;53.110;8.468;2022-07-29T04:45:48;4.22;;;1.60;;
22064;SDS011;11197;53.110;8.468;2022-07-29T04:48:14;4.43;;;1.63;;
22064;SDS011;11197;53.110;8.468;2022-07-29T04:50:40;5.32;;;1.80;;
22064;SDS011;11197;53.110;8.468;2022-07-29T04:53:06;3.47;;;1.50;;
22064;SDS011;11197;53.110;8.468;2022-07-29T04:55:32;4.28;;;1.80;;
22064;SDS011;11197;53.110;8.468;2022-07-29T04:57:58;4.35;;;1.88;;
22064;SDS011;11197;53.110;8.468;2022-07-29T05:00:24;4.95;;;1.90;;
22064;SDS011;11197;53.110;8.468;2022-07-29T05:02:51;4.72;;;1.80;;
22064;SDS011;11197;53.110;8.468;2022-07-29T05:05:17;3.53;;;1.83;;
22064;SDS011;11197;53.110;8.468;2022-07-29T05:07:42;4.47;;;1.77;;
22064;SDS011;11197;53.110;8.468;2022-07-29T05:10:08;6.75;;;1.75;;
22064;SDS011;11197;53.110;8.468;2022-07-29T05:12:35;5.68;;;2.03;;
22064;SDS011;11197;53.110;8.468;2022-07-29T05:15:00;6.70;;;1.80;;
22064;SDS011;11197;53.110;8.468;2022-07-29T05:17:28;5.65;;;1.88;;
22064;SDS011;11197;53.110;8.468;2022-07-29T05:19:54;7.97;;;2.30;;
22064;SDS011;11197;53.110;8.468;2022-07-29T05:22:20;4.25;;;1.95;;
22064;SDS011;11197;53.110;8.468;2022-07-29T05:24:46;4.30;;;2.10;;
22064;SDS011;11197;53.110;8.468;2022-07-29T05:27:12;4.85;;;2.08;;
22064;SDS011;11197;53.110;8.468;2022-07-29T05:29:38;5.68;;;1.98;;
22064;SDS011;11197;53.110;8.468;2022-07-29T05:32:04;6.53;;;2.30;;
22064;SDS011;11197;53.110;8.468;2022-07-29T05:34:30;4.68;;;2.50;;
22064;SDS011;11197;53.110;8.468;2022-07-29T05:36:56;5.00;;;2.28;;
22064;SDS011;11197;53.110;8.468;2022-07-29T05:39:22;6.85;;;2.22;;
22064;SDS011;11197;53.110;8.468;2022-07-29T05:41:48;7.43;;;2.53;;
22064;SDS011;11197;53.110;8.468;2022-07-29T05:44:14;7.03;;;2.60;;
22064;SDS011;11197;53.110;8.468;2022-07-29T05:46:40;10.13;;;2.45;;
22064;SDS011;11197;53.110;8.468;2022-07-29T05:49:06;6.40;;;2.10;;
22064;SDS011;11197;53.110;8.468;2022-07-29T05:51:33;6.93;;;2.40;;
22064;SDS011;11197;53.110;8.468;2022-07-29T05:53:59;5.25;;;2.22;;
22064;SDS011;11197;53.110;8.468;2022-07-29T05:56:25;5.50;;;2.33;;
22064;SDS011;11197;53.110;8.468;2022-07-29T05:58:51;6.72;;;2.60;;
22064;SDS011;11197;53.110;8.468;2022-07-29T06:01:17;21.98;;;3.22;;
22064;SDS011;11197;53.110;8.468;2022-07-29T06:03:43;7.40;;;2.50;;
22064;SDS011;11197;53.110;8.468;2022-07-29T06:06:09;7.63;;;2.65;;
22064;SDS011;11197;53.110;8.468;2022-07-29T06:08:36;5.68;;;2.25;;
22064;SDS011;11197;53.110;8.468;2022-07-29T06:11:02;8.32;;;2.47;;
22064;SDS011;11197;53.110;8.468;2022-07-29T06:13:29;6.60;;;2.40;;
22064;SDS011;11197;53.110;8.468;2022-07-29T06:15:56;7.93;;;2.50;;
22064;SDS011;11197;53.110;8.468;2022-07-29T06:18:22;9.10;;;2.60;;
22064;SDS011;11197;53.110;8.468;2022-07-29T06:20:52;7.85;;;2.78;;
22064;SDS011;11197;53.110;8.468;2022-07-29T06:23:19;8.32;;;2.90;;
22064;SDS011;11197;53.110;8.468;2022-07-29T06:25:45;8.57;;;2.60;;
22064;SDS011;11197;53.110;8.468;2022-07-29T06:28:11;7.22;;;2.70;;
22064;SDS011;11197;53.110;8.468;2022-07-29T06:30:38;8.30;;;3.17;;
22064;SDS011;11197;53.110;8.468;2022-07-29T06:33:05;8.43;;;3.15;;
22064;SDS011;11197;53.110;8.468;2022-07-29T06:35:33;6.45;;;3.17;;
22064;SDS011;11197;53.110;8.468;2022-07-29T06:38:02;10.63;;;3.25;;
22064;SDS011;11197;53.110;8.468;2022-07-29T06:40:28;9.60;;;2.90;;
22064;SDS011;11197;53.110;8.468;2022-07-29T06:43:13;8.43;;;3.08;;
22064;SDS011;11197;53.110;8.468;2022-07-29T06:45:39;8.45;;;2.90;;
22064;SDS011;11197;53.110;8.468;2022-07-29T06:48:06;7.28;;;2.42;;
22064;SDS011;11197;53.110;8.468;2022-07-29T06:50:32;8.07;;;2.88;;
22064;SDS011;11197;53.110;8.468;2022-07-29T06:52:58;6.47;;;2.70;;
22064;SDS011;11197;53.110;8.468;2022-07-29T06:55:24;10.40;;;3.05;;
22064;SDS011;11197;53.110;8.468;2022-07-29T06:57:50;4.90;;;2.42;;
22064;SDS011;11197;53.110;8.468;2022-07-29T07:00:16;12.88;;;3.10;;
22064;SDS011;11197;53.110;8.468;2022-07-29T07:02:42;8.25;;;3.05;;
22064;SDS011;11197;53.110;8.468;2022-07-29T07:05:08;13.23;;;3.42;;
22064;SDS011;11197;53.110;8.468;2022-07-29T07:07:34;9.57;;;3.30;;
22064;SDS011;11197;53.110;8.468;2022-07-29T07:10:00;8.15;;;3.30;;
22064;SDS011;11197;53.110;8.468;2022-07-29T07:12:26;6.07;;;2.83;;
22064;SDS011;11197;53.110;8.468;2022-07-29T07:14:52;8.25;;;3.50;;
22064;SDS011;11197;53.110;8.468;2022-07-29T07:17:18;5.63;;;2.88;;
22064;SDS011;11197;53.110;8.468;2022-07-29T07:19:44;9.25;;;3.50;;
22064;SDS011;11197;53.110;8.468;2022-07-29T07:22:10;8.45;;;3.22;;
22064;SDS011;11197;53.110;8.468;2022-07-29T07:24:36;9.32;;;3.40;;
22064;SDS011;11197;53.110;8.468;2022-07-29T07:27:02;7.32;;;3.22;;
22064;SDS011;11197;53.110;8.468;2022-07-29T07:29:28;8.77;;;2.92;;
22064;SDS011;11197;53.110;8.468;2022-07-29T07:31:54;9.90;;;3.13;;
22064;SDS011;11197;53.110;8.468;2022-07-29T07:34:20;11.05;;;3.30;;
22064;SDS011;11197;53.110;8.468;2022-07-29T07:36:46;7.95;;;3.47;;
22064;SDS011;11197;53.110;8.468;2022-07-29T07:39:12;9.48;;;3.20;;
22064;SDS011;11197;53.110;8.468;2022-07-29T07:41:38;9.25;;;3.00;;
22064;SDS011;11197;53.110;8.468;2022-07-29T07:44:03;7.28;;;3.28;;
22064;SDS011;11197;53.110;8.468;2022-07-29T07:46:30;7.20;;;3.10;;
22064;SDS011;11197;53.110;8.468;2022-07-29T07:48:56;5.57;;;2.53;;
22064;SDS011;11197;53.110;8.468;2022-07-29T07:51:22;5.80;;;2.80;;
22064;SDS011;11197;53.110;8.468;2022-07-29T07:53:48;5.40;;;2.30;;
22064;SDS011;11197;53.110;8.468;2022-07-29T07:56:15;8.88;;;2.70;;
22064;SDS011;11197;53.110;8.468;2022-07-29T07:58:41;5.75;;;2.38;;
22064;SDS011;11197;53.110;8.468;2022-07-29T08:01:08;7.07;;;2.40;;
22064;SDS011;11197;53.110;8.468;2022-07-29T08:03:35;7.97;;;2.83;;
22064;SDS011;11197;53.110;8.468;2022-07-29T08:06:01;6.38;;;2.58;;
22064;SDS011;11197;53.110;8.468;2022-07-29T08:08:28;10.07;;;2.33;;
22064;SDS011;11197;53.110;8.468;2022-07-29T08:10:54;6.05;;;2.60;;
22064;SDS011;11197;53.110;8.468;2022-07-29T08:13:24;5.87;;;2.70;;
22064;SDS011;11197;53.110;8.468;2022-07-29T08:15:53;7.40;;;2.20;;
22064;SDS011;11197;53.110;8.468;2022-07-29T08:18:36;7.07;;;2.28;;
22064;SDS011;11197;53.110;8.468;2022-07-29T08:21:03;6.22;;;2.50;;
22064;SDS011;11197;53.110;8.468;2022-07-29T08:23:29;6.55;;;2.40;;
22064;SDS011;11197;53.110;8.468;2022-07-29T08:26:08;6.68;;;2.50;;
22064;SDS011;11197;53.110;8.468;2022-07-29T08:28:36;4.28;;;2.15;;
22064;SDS011;11197;53.110;8.468;2022-07-29T08:31:03;5.47;;;2.40;;
22064;SDS011;11197;53.110;8.468;2022-07-29T08:33:29;7.10;;;2.53;;
22064;SDS011;11197;53.110;8.468;2022-07-29T08:35:55;8.07;;;2.50;;
22064;SDS011;11197;53.110;8.468;2022-07-29T08:38:21;6.05;;;2.35;;
22064;SDS011;11197;53.110;8.468;2022-07-29T08:40:47;7.18;;;2.35;;
22064;SDS011;11197;53.110;8.468;2022-07-29T08:43:14;5.35;;;2.20;;
22064;SDS011;11197;53.110;8.468;2022-07-29T08:45:49;7.05;;;2.10;;
22064;SDS011;11197;53.110;8.468;2022-07-29T08:48:16;7.82;;;2.40;;
22064;SDS011;11197;53.110;8.468;2022-07-29T08:50:46;4.60;;;2.17;;
22064;SDS011;11197;53.110;8.468;2022-07-29T08:53:14;7.35;;;2.42;;
22064;SDS011;11197;53.110;8.468;2022-07-29T08:55:42;8.38;;;2.50;;
22064;SDS011;11197;53.110;8.468;2022-07-29T08:58:09;8.35;;;2.45;;
22064;SDS011;11197;53.110;8.468;2022-07-29T09:00:41;7.75;;;2.22;;
22064;SDS011;11197;53.110;8.468;2022-07-29T09:03:09;8.40;;;2.35;;
22064;SDS011;11197;53.110;8.468;2022-07-29T09:05:44;7.05;;;2.35;;
22064;SDS011;11197;53.110;8.468;2022-07-29T09:08:12;7.22;;;2.60;;
22064;SDS011;11197;53.110;8.468;2022-07-29T09:10:39;7.38;;;2.95;;
22064;SDS011;11197;53.110;8.468;2022-07-29T09:13:05;10.75;;;3.15;;
22064;SDS011;11197;53.110;8.468;2022-07-29T09:15:32;8.13;;;3.08;;
22064;SDS011;11197;53.110;8.468;2022-07-29T09:17:58;8.98;;;3.13;;
22064;SDS011;11197;53.110;8.468;2022-07-29T09:20:25;8.93;;;3.45;;
22064;SDS011;11197;53.110;8.468;2022-07-29T09:23:11;8.00;;;3.60;;
22064;SDS011;11197;53.110;8.468;2022-07-29T09:25:39;12.85;;;3.10;;
22064;SDS011;11197;53.110;8.468;2022-07-29T09:28:09;7.13;;;3.22;;
22064;SDS011;11197;53.110;8.468;2022-07-29T09:30:58;8.50;;;3.00;;
22064;SDS011;11197;53.110;8.468;2022-07-29T09:33:31;10.75;;;3.50;;
22064;SDS011;11197;53.110;8.468;2022-07-29T09:36:06;9.60;;;4.28;;
22064;SDS011;11197;53.110;8.468;2022-07-29T09:38:34;13.40;;;4.75;;
22064;SDS011;11197;53.110;8.468;2022-07-29T09:41:02;11.52;;;5.18;;
22064;SDS011;11197;53.110;8.468;2022-07-29T09:43:29;12.55;;;5.03;;
22064;SDS011;11197;53.110;8.468;2022-07-29T09:45:55;11.40;;;4.70;;
22064;SDS011;11197;53.110;8.468;2022-07-29T09:48:22;10.13;;;4.10;;
22064;SDS011;11197;53.110;8.468;2022-07-29T09:50:50;8.93;;;3.40;;
22064;SDS011;11197;53.110;8.468;2022-07-29T09:53:51;9.32;;;3.47;;
22064;SDS011;11197;53.110;8.468;2022-07-29T09:56:11;8.32;;;3.30;;
22064;SDS011;11197;53.110;8.468;2022-07-29T09:58:38;5.95;;;2.40;;
22064;SDS011;11197;53.110;8.468;2022-07-29T10:01:04;8.90;;;2.58;;
22064;SDS011;11197;53.110;8.468;2022-07-29T10:03:30;6.70;;;2.63;;
22064;SDS011;11197;53.110;8.468;2022-07-29T10:06:09;7.35;;;2.40;;
22064;SDS011;11197;53.110;8.468;2022-07-29T10:08:40;5.97;;;2.40;;
22064;SDS011;11197;53.110;8.468;2022-07-29T10:11:17;6.78;;;2.30;;
22064;SDS011;11197;53.110;8.468;2022-07-29T10:13:45;7.35;;;2.40;;
22064;SDS011;11197;53.110;8.468;2022-07-29T10:16:13;6.07;;;2.25;;
22064;SDS011;11197;53.110;8.468;2022-07-29T10:18:44;9.23;;;2.30;;
22064;SDS011;11197;53.110;8.468;2022-07-29T10:21:10;7.63;;;2.67;;
22064;SDS011;11197;53.110;8.468;2022-07-29T10:23:36;6.00;;;2.45;;
22064;SDS011;11197;53.110;8.468;2022-07-29T10:26:03;6.05;;;2.20;;
22064;SDS011;11197;53.110;8.468;2022-07-29T10:28:31;9.35;;;2.40;;
22064;SDS011;11197;53.110;8.468;2022-07-29T10:31:01;10.15;;;2.78;;
22064;SDS011;11197;53.110;8.468;2022-07-29T10:44:39;9.25;;;3.00;;
22064;SDS011;11197;53.110;8.468;2022-07-29T10:47:07;11.07;;;3.35;;
22064;SDS011;11197;53.110;8.468;2022-07-29T10:49:33;11.13;;;2.80;;
22064;SDS011;11197;53.110;8.468;2022-07-29T10:52:01;8.73;;;2.80;;
22064;SDS011;11197;53.110;8.468;2022-07-29T10:54:37;9.13;;;2.85;;
22064;SDS011;11197;53.110;8.468;2022-07-29T10:57:27;7.75;;;2.33;;
22064;SDS011;11197;53.110;8.468;2022-07-29T11:07:37;5.85;;;2.30;;
22064;SDS011;11197;53.110;8.468;2022-07-29T11:15:12;7.18;;;2.20;;
22064;SDS011;11197;53.110;8.468;2022-07-29T11:23:16;5.88;;;2.22;;
22064;SDS011;11197;53.110;8.468;2022-07-29T11:28:53;6.65;;;2.10;;
22064;SDS011;11197;53.110;8.468;2022-07-29T11:39:46;4.90;;;1.75;;
22064;SDS011;11197;53.110;8.468;2022-07-29T11:47:23;7.05;;;2.00;;
22064;SDS011;11197;53.110;8.468;2022-07-29T11:49:51;4.47;;;1.90;;
22064;SDS011;11197;53.110;8.468;2022-07-29T11:52:18;6.05;;;1.83;;
22064;SDS011;11197;53.110;8.468;2022-07-29T11:54:48;5.50;;;1.75;;
22064;SDS011;11197;53.110;8.468;2022-07-29T11:57:18;6.32;;;2.00;;
22064;SDS011;11197;53.110;8.468;2022-07-29T11:59:46;3.75;;;1.50;;
22064;SDS011;11197;53.110;8.468;2022-07-29T12:02:13;7.05;;;2.03;;
22064;SDS011;11197;53.110;8.468;2022-07-29T12:04:52;6.38;;;1.90;;
22064;SDS011;11197;53.110;8.468;2022-07-29T12:07:30;5.82;;;2.25;;
22064;SDS011;11197;53.110;8.468;2022-07-29T12:09:57;7.55;;;1.88;;
22064;SDS011;11197;53.110;8.468;2022-07-29T12:12:23;7.10;;;1.90;;
22064;SDS011;11197;53.110;8.468;2022-07-29T12:14:51;4.80;;;1.60;;
22064;SDS011;11197;53.110;8.468;2022-07-29T12:20:25;7.55;;;1.90;;
22064;SDS011;11197;53.110;8.468;2022-07-29T12:22:52;5.88;;;1.77;;
22064;SDS011;11197;53.110;8.468;2022-07-29T12:25:19;7.47;;;1.73;;
22064;SDS011;11197;53.110;8.468;2022-07-29T12:27:47;6.82;;;1.73;;
22064;SDS011;11197;53.110;8.468;2022-07-29T12:30:23;6.32;;;1.80;;
22064;SDS011;11197;53.110;8.468;2022-07-29T12:35:45;4.97;;;1.60;;
22064;SDS011;11197;53.110;8.468;2022-07-29T12:38:17;5.03;;;1.80;;
22064;SDS011;11197;53.110;8.468;2022-07-29T12:40:44;9.52;;;2.00;;
22064;SDS011;11197;53.110;8.468;2022-07-29T12:43:12;4.13;;;1.40;;
22064;SDS011;11197;53.110;8.468;2022-07-29T12:45:46;4.63;;;1.58;;
22064;SDS011;11197;53.110;8.468;2022-07-29T12:48:15;6.33;;;1.50;;
22064;SDS011;11197;53.110;8.468;2022-07-29T12:50:52;3.97;;;1.40;;
22064;SDS011;11197;53.110;8.468;2022-07-29T12:53:19;4.30;;;1.40;;
22064;SDS011;11197;53.110;8.468;2022-07-29T12:55:46;5.53;;;1.48;;
22064;SDS011;11197;53.110;8.468;2022-07-29T12:58:26;7.57;;;1.50;;
22064;SDS011;11197;53.110;8.468;2022-07-29T13:03:44;4.47;;;1.35;;
22064;SDS011;11197;53.110;8.468;2022-07-29T13:06:28;4.45;;;1.60;;
22064;SDS011;11197;53.110;8.468;2022-07-29T13:11:43;5.10;;;1.33;;
22064;SDS011;11197;53.110;8.468;2022-07-29T13:14:11;5.60;;;1.48;;
22064;SDS011;11197;53.110;8.468;2022-07-29T13:19:41;3.97;;;1.35;;
22064;SDS011;11197;53.110;8.468;2022-07-29T13:22:09;4.10;;;1.75;;
22064;SDS011;11197;53.110;8.468;2022-07-29T13:24:53;4.22;;;1.60;;
22064;SDS011;11197;53.110;8.468;2022-07-29T13:27:22;6.10;;;1.50;;
22064;SDS011;11197;53.110;8.468;2022-07-29T13:29:50;6.70;;;1.45;;
22064;SDS011;11197;53.110;8.468;2022-07-29T13:32:17;4.80;;;1.40;;
22064;SDS011;11197;53.110;8.468;2022-07-29T13:34:44;4.88;;;1.40;;
22064;SDS011;11197;53.110;8.468;2022-07-29T13:37:11;4.80;;;1.63;;
22064;SDS011;11197;53.110;8.468;2022-07-29T13:39:37;5.22;;;1.50;;
22064;SDS011;11197;53.110;8.468;2022-07-29T13:42:03;6.05;;;1.58;;
22064;SDS011;11197;53.110;8.468;2022-07-29T13:44:30;2.85;;;1.30;;
22064;SDS011;11197;53.110;8.468;2022-07-29T13:46:56;5.28;;;1.42;;
22064;SDS011;11197;53.110;8.468;2022-07-29T13:49:24;6.03;;;1.40;;
22064;SDS011;11197;53.110;8.468;2022-07-29T13:51:50;6.88;;;1.60;;
22064;SDS011;11197;53.110;8.468;2022-07-29T13:54:16;5.97;;;1.60;;
22064;SDS011;11197;53.110;8.468;2022-07-29T13:56:42;5.20;;;1.42;;
22064;SDS011;11197;53.110;8.468;2022-07-29T13:59:08;5.00;;;1.70;;
22064;SDS011;11197;53.110;8.468;2022-07-29T14:01:34;5.00;;;1.50;;
22064;SDS011;11197;53.110;8.468;2022-07-29T14:04:00;5.97;;;1.50;;
22064;SDS011;11197;53.110;8.468;2022-07-29T14:06:26;5.43;;;1.50;;
22064;SDS011;11197;53.110;8.468;2022-07-29T14:08:52;5.55;;;1.83;;
22064;SDS011;11197;53.110;8.468;2022-07-29T14:11:18;3.72;;;1.45;;
22064;SDS011;11197;53.110;8.468;2022-07-29T14:13:44;5.28;;;1.60;;
22064;SDS011;11197;53.110;8.468;2022-07-29T14:16:10;6.43;;;1.55;;
22064;SDS011;11197;53.110;8.468;2022-07-29T14:18:36;4.03;;;1.30;;
22064;SDS011;11197;53.110;8.468;2022-07-29T14:21:02;4.70;;;1.35;;
22064;SDS011;11197;53.110;8.468;2022-07-29T14:23:28;3.50;;;1.30;;
22064;SDS011;11197;53.110;8.468;2022-07-29T14:25:54;6.88;;;1.65;;
22064;SDS011;11197;53.110;8.468;2022-07-29T14:28:20;6.68;;;1.67;;
22064;SDS011;11197;53.110;8.468;2022-07-29T14:30:46;4.22;;;1.50;;
22064;SDS011;11197;53.110;8.468;2022-07-29T14:33:12;3.95;;;1.40;;
22064;SDS011;11197;53.110;8.468;2022-07-29T14:35:39;4.55;;;1.25;;
22064;SDS011;11197;53.110;8.468;2022-07-29T14:38:05;4.88;;;1.30;;
22064;SDS011;11197;53.110;8.468;2022-07-29T14:40:31;2.85;;;1.30;;
22064;SDS011;11197;53.110;8.468;2022-07-29T14:42:57;2.45;;;1.20;;
22064;SDS011;11197;53.110;8.468;2022-07-29T14:45:23;4.07;;;1.20;;
22064;SDS011;11197;53.110;8.468;2022-07-29T14:47:49;3.60;;;1.40;;
22064;SDS011;11197;53.110;8.468;2022-07-29T14:50:16;3.55;;;1.40;;
22064;SDS011;11197;53.110;8.468;2022-07-29T14:52:43;7.22;;;1.58;;
22064;SDS011;11197;53.110;8.468;2022-07-29T14:55:09;4.05;;;1.60;;
22064;SDS011;11197;53.110;8.468;2022-07-29T14:57:35;3.13;;;1.40;;
22064;SDS011;11197;53.110;8.468;2022-07-29T15:00:02;4.15;;;1.30;;
22064;SDS011;11197;53.110;8.468;2022-07-29T15:02:32;3.75;;;1.40;;
22064;SDS011;11197;53.110;8.468;2022-07-29T15:04:58;4.90;;;1.30;;
22064;SDS011;11197;53.110;8.468;2022-07-29T15:07:24;4.70;;;1.20;;
22064;SDS011;11197;53.110;8.468;2022-07-29T15:09:51;3.25;;;1.48;;
22064;SDS011;11197;53.110;8.468;2022-07-29T15:12:16;3.22;;;1.40;;
22064;SDS011;11197;53.110;8.468;2022-07-29T15:14:42;5.90;;;1.50;;
22064;SDS011;11197;53.110;8.468;2022-07-29T15:17:08;3.92;;;1.40;;
22064;SDS011;11197;53.110;8.468;2022-07-29T15:19:34;5.38;;;1.60;;
22064;SDS011;11197;53.110;8.468;2022-07-29T15:22:00;7.60;;;1.80;;
22064;SDS011;11197;53.110;8.468;2022-07-29T15:24:27;5.43;;;1.73;;
22064;SDS011;11197;53.110;8.468;2022-07-29T15:26:53;6.60;;;1.80;;
22064;SDS011;11197;53.110;8.468;2022-07-29T15:29:19;5.18;;;1.75;;
22064;SDS011;11197;53.110;8.468;2022-07-29T15:31:45;8.20;;;1.75;;
22064;SDS011;11197;53.110;8.468;2022-07-29T15:34:11;5.30;;;1.60;;
22064;SDS011;11197;53.110;8.468;2022-07-29T15:36:37;3.00;;;1.45;;
22064;SDS011;11197;53.110;8.468;2022-07-29T15:39:03;4.38;;;1.50;;
22064;SDS011;11197;53.110;8.468;2022-07-29T15:41:28;4.90;;;1.50;;
22064;SDS011;11197;53.110;8.468;2022-07-29T15:43:54;8.10;;;1.70;;
22064;SDS011;11197;53.110;8.468;2022-07-29T15:46:20;4.85;;;1.63;;
22064;SDS011;11197;53.110;8.468;2022-07-29T15:49:05;6.97;;;1.50;;
22064;SDS011;11197;53.110;8.468;2022-07-29T15:51:32;5.40;;;1.70;;
22064;SDS011;11197;53.110;8.468;2022-07-29T15:53:58;5.13;;;1.73;;
22064;SDS011;11197;53.110;8.468;2022-07-29T15:56:26;5.68;;;1.65;;
22064;SDS011;11197;53.110;8.468;2022-07-29T15:58:52;6.57;;;1.92;;
22064;SDS011;11197;53.110;8.468;2022-07-29T16:01:18;3.22;;;1.50;;
22064;SDS011;11197;53.110;8.468;2022-07-29T16:03:44;4.57;;;1.70;;
22064;SDS011;11197;53.110;8.468;2022-07-29T16:06:10;5.68;;;1.70;;